createdAt,value
2017-10-29T00:00:42.027Z,99426.25
2017-10-29T00:03:08.227Z,99427.12
2017-10-29T00:05:34.668Z,99406.20
2017-10-29T00:08:00.998Z,99408.01
2017-10-29T00:10:27.189Z,99414.14
2017-10-29T00:12:53.399Z,99389.73
2017-10-29T00:15:19.762Z,99389.30
2017-10-29T00:17:45.946Z,99375.39
2017-10-29T00:20:12.174Z,99350.95
2017-10-29T00:22:38.932Z,99357.98
2017-10-29T00:25:05.114Z,99356.23
2017-10-29T00:27:31.305Z,99346.20
2017-10-29T00:29:57.520Z,99335.70
2017-10-29T00:32:23.962Z,99327.80
2017-10-29T00:34:50.548Z,99327.36
2017-10-29T00:37:17.670Z,99309.01
2017-10-29T00:39:43.849Z,99322.17
2017-10-29T00:42:10.186Z,99321.80
2017-10-29T00:44:36.361Z,99316.39
2017-10-29T00:47:02.547Z,99313.81
2017-10-29T00:49:28.884Z,99318.67
2017-10-29T00:51:55.089Z,99333.90
2017-10-29T00:54:21.284Z,99326.87
2017-10-29T00:56:47.575Z,99316.89
2017-10-29T00:59:14.003Z,99297.17
2017-10-29T01:01:40.196Z,99285.02
2017-10-29T01:04:06.900Z,99275.03
2017-10-29T01:06:33.100Z,99271.65
2017-10-29T01:08:59.281Z,99273.05
2017-10-29T01:11:25.859Z,99269.96
2017-10-29T01:13:52.062Z,99269.61
2017-10-29T01:16:18.553Z,99278.34
2017-10-29T01:18:44.896Z,99284.53
2017-10-29T01:21:11.323Z,99287.63
2017-10-29T01:23:37.505Z,99260.64
2017-10-29T01:26:03.744Z,99265.81
2017-10-29T01:28:29.930Z,99255.45
2017-10-29T01:30:56.192Z,99248.97
2017-10-29T01:33:22.541Z,99249.41
2017-10-29T01:35:48.727Z,99264.69
2017-10-29T01:38:14.985Z,99254.64
2017-10-29T01:40:41.255Z,99248.66
2017-10-29T01:43:07.438Z,99249.98
2017-10-29T01:45:33.642Z,99257.91
2017-10-29T01:47:59.891Z,99269.23
2017-10-29T01:50:26.103Z,99265.36
2017-10-29T01:52:52.295Z,99251.41
2017-10-29T01:55:18.613Z,99251.96
2017-10-29T01:57:44.817Z,99239.34
2017-10-29T02:00:10.992Z,99243.23
2017-10-29T02:02:37.667Z,99251.47
2017-10-29T02:05:04.153Z,99274.59
2017-10-29T02:07:30.580Z,99259.38
2017-10-29T02:09:57.128Z,99283.45
2017-10-29T02:12:23.555Z,99286.06
2017-10-29T02:14:49.992Z,99320.17
2017-10-29T02:17:17.188Z,99279.75
2017-10-29T02:19:43.377Z,99279.64
2017-10-29T02:22:09.903Z,99265.69
2017-10-29T02:24:36.167Z,99273.66
2017-10-29T02:27:02.363Z,99265.37
2017-10-29T02:29:28.562Z,99268.48
2017-10-29T02:31:54.886Z,99267.65
2017-10-29T02:34:21.142Z,99287.67
2017-10-29T02:36:47.326Z,99333.50
2017-10-29T02:39:13.574Z,99323.09
2017-10-29T02:41:39.766Z,99300.06
2017-10-29T02:44:05.950Z,99305.81
2017-10-29T02:46:32.199Z,99298.08
2017-10-29T02:48:58.478Z,99308.17
2017-10-29T02:51:24.664Z,99323.11
2017-10-29T02:53:50.930Z,99324.98
2017-10-29T02:56:17.130Z,99316.38
2017-10-29T02:58:43.582Z,99305.95
2017-10-29T03:01:10.058Z,99310.70
2017-10-29T03:03:36.336Z,99319.91
2017-10-29T03:06:02.578Z,99308.56
2017-10-29T03:08:28.769Z,99306.34
2017-10-29T03:10:54.982Z,99311.69
2017-10-29T03:13:21.308Z,99321.28
2017-10-29T03:15:47.498Z,99309.01
2017-10-29T03:18:13.780Z,99332.20
2017-10-29T03:20:40.256Z,99334.27
2017-10-29T03:23:06.450Z,99314.67
2017-10-29T03:25:32.626Z,99318.23
2017-10-29T03:27:59.189Z,99326.58
2017-10-29T03:30:25.421Z,99312.73
2017-10-29T03:32:51.625Z,99329.27
2017-10-29T03:35:18.169Z,99362.97
2017-10-29T03:37:44.368Z,99361.22
2017-10-29T03:40:10.562Z,99352.13
2017-10-29T03:42:37.144Z,99372.25
2017-10-29T03:45:03.582Z,99355.66
2017-10-29T03:47:29.768Z,99352.28
2017-10-29T03:49:56.409Z,99354.41
2017-10-29T03:52:22.614Z,99344.55
2017-10-29T03:54:49.105Z,99365.11
2017-10-29T03:57:15.336Z,99351.05
2017-10-29T03:59:41.773Z,99353.81
2017-10-29T04:02:07.972Z,99339.03
2017-10-29T04:04:34.304Z,99365.66
2017-10-29T04:07:00.504Z,99356.06
2017-10-29T04:09:26.705Z,99352.14
2017-10-29T04:11:53.026Z,99364.73
2017-10-29T04:14:19.207Z,99367.83
2017-10-29T04:16:45.641Z,99376.56
2017-10-29T04:19:11.989Z,99394.48
2017-10-29T04:21:38.181Z,99374.32
2017-10-29T04:24:04.461Z,99372.62
2017-10-29T04:26:30.702Z,99380.42
2017-10-29T04:28:56.905Z,99366.84
2017-10-29T04:31:23.103Z,99366.09
2017-10-29T04:33:49.646Z,99384.84
2017-10-29T04:36:15.847Z,99386.96
2017-10-29T04:38:42.260Z,99383.09
2017-10-29T04:41:08.513Z,99383.11
2017-10-29T04:43:34.735Z,99391.72
2017-10-29T04:46:00.931Z,99404.70
2017-10-29T04:48:27.413Z,99420.39
2017-10-29T04:50:53.614Z,99421.31
2017-10-29T04:53:19.798Z,99410.41
2017-10-29T04:55:46.410Z,99437.51
2017-10-29T04:58:12.598Z,99436.97
2017-10-29T05:00:39.034Z,99442.64
2017-10-29T05:03:05.589Z,99428.20
2017-10-29T05:05:31.789Z,99433.05
2017-10-29T05:07:58.225Z,99429.12
2017-10-29T05:10:24.467Z,99431.73
2017-10-29T05:12:50.665Z,99447.00
2017-10-29T05:15:16.853Z,99461.29
2017-10-29T05:17:43.416Z,99469.52
2017-10-29T05:20:09.985Z,99496.02
2017-10-29T05:22:36.408Z,99496.52
2017-10-29T05:25:02.886Z,99491.66
2017-10-29T05:27:29.097Z,99510.77
2017-10-29T05:29:55.290Z,99507.26
2017-10-29T05:32:22.095Z,99513.75
2017-10-29T05:34:48.284Z,99508.23
2017-10-29T05:37:14.472Z,99523.84
2017-10-29T05:39:40.746Z,99535.62
2017-10-29T05:42:07.180Z,99548.23
2017-10-29T05:44:33.376Z,99550.94
2017-10-29T05:46:59.630Z,99573.53
2017-10-29T05:49:25.810Z,99576.15
2017-10-29T05:51:52.258Z,99599.76
2017-10-29T05:54:19.207Z,99591.86
2017-10-29T05:56:45.401Z,99616.73
2017-10-29T05:59:11.579Z,99614.55
2017-10-29T06:01:38.166Z,99632.53
2017-10-29T06:04:04.472Z,99638.20
2017-10-29T06:06:30.672Z,99632.53
2017-10-29T06:08:57.352Z,99753.39
2017-10-29T06:11:23.793Z,99770.31
2017-10-29T06:13:50.238Z,99760.28
2017-10-29T06:16:16.848Z,99758.53
2017-10-29T06:18:43.032Z,99773.37
2017-10-29T06:21:09.422Z,99787.86
2017-10-29T06:23:35.926Z,99807.20
2017-10-29T06:26:02.359Z,99810.22
2017-10-29T06:28:28.812Z,99832.47
2017-10-29T06:30:55.775Z,99855.64
2017-10-29T06:33:21.962Z,99849.09
2017-10-29T06:35:48.158Z,99863.06
2017-10-29T06:38:14.415Z,99878.37
2017-10-29T06:40:40.607Z,99876.19
2017-10-29T06:43:06.796Z,99887.97
2017-10-29T06:45:33.534Z,99910.27
2017-10-29T06:47:59.731Z,99898.97
2017-10-29T06:50:26.146Z,99909.05
2017-10-29T06:52:52.491Z,99920.83
2017-10-29T06:55:18.701Z,99926.20
2017-10-29T06:57:44.889Z,99956.69
2017-10-29T07:00:11.552Z,99960.53
2017-10-29T07:02:37.754Z,99977.55
2017-10-29T07:05:03.958Z,99989.28
2017-10-29T07:07:30.449Z,99988.80
2017-10-29T07:09:56.644Z,100001.80
2017-10-29T07:12:22.825Z,99998.67
2017-10-29T07:14:49.168Z,100030.44
2017-10-29T07:17:15.390Z,100026.94
2017-10-29T07:19:41.622Z,100047.89
2017-10-29T07:22:07.990Z,100061.06
2017-10-29T07:24:34.478Z,100072.80
2017-10-29T07:27:00.916Z,100071.89
2017-10-29T07:29:27.248Z,100078.03
2017-10-29T07:31:53.701Z,100076.59
2017-10-29T07:34:19.902Z,100080.48
2017-10-29T07:36:46.168Z,100093.97
2017-10-29T07:39:12.372Z,100103.09
2017-10-29T07:41:38.805Z,100111.78
2017-10-29T07:44:05.128Z,100114.41
2017-10-29T07:46:31.326Z,100118.80
2017-10-29T07:48:57.522Z,100133.13
2017-10-29T07:51:24.170Z,100142.21
2017-10-29T07:53:50.387Z,100145.22
2017-10-29T07:56:16.593Z,100152.64
2017-10-29T07:58:42.847Z,100167.92
2017-10-29T08:01:09.045Z,100184.03
2017-10-29T08:03:35.254Z,100181.81
2017-10-29T08:06:01.474Z,100190.06
2017-10-29T08:08:27.660Z,100188.23
2017-10-29T08:10:53.925Z,100199.50
2017-10-29T08:13:20.132Z,100197.71
2017-10-29T08:15:46.316Z,100216.92
2017-10-29T08:18:12.978Z,100211.29
2017-10-29T08:20:39.150Z,100217.00
2017-10-29T08:23:05.694Z,100235.34
2017-10-29T08:25:31.949Z,100247.59
2017-10-29T08:27:58.372Z,100259.91
2017-10-29T08:30:24.794Z,100259.42
2017-10-29T08:32:51.274Z,100244.15
2017-10-29T08:35:17.550Z,100263.43
2017-10-29T08:37:43.745Z,100269.78
2017-10-29T08:40:10.065Z,100275.34
2017-10-29T08:42:36.338Z,100266.73
2017-10-29T08:45:02.979Z,100293.95
2017-10-29T08:47:29.297Z,100296.20
2017-10-29T08:49:55.482Z,100314.03
2017-10-29T08:52:21.666Z,100309.40
2017-10-29T08:54:47.930Z,100327.10
2017-10-29T08:57:14.129Z,100323.25
2017-10-29T08:59:40.325Z,100334.56
2017-10-29T09:02:06.744Z,100338.53
2017-10-29T09:04:32.922Z,100347.78
2017-10-29T09:06:59.105Z,100348.14
2017-10-29T09:09:25.366Z,100350.13
2017-10-29T09:11:51.625Z,100352.67
2017-10-29T09:14:18.055Z,100361.37
2017-10-29T09:16:44.376Z,100374.67
2017-10-29T09:19:10.581Z,100399.85
2017-10-29T09:21:36.774Z,100396.98
2017-10-29T09:24:03.117Z,100408.81
2017-10-29T09:26:29.313Z,100406.23
2017-10-29T09:28:55.519Z,100414.06
2017-10-29T09:31:21.788Z,100411.32
2017-10-29T09:33:48.068Z,100439.48
2017-10-29T09:36:14.485Z,100437.41
2017-10-29T09:38:40.741Z,100434.55
2017-10-29T09:41:07.245Z,100438.08
2017-10-29T09:43:33.441Z,100444.19
2017-10-29T09:45:59.699Z,100454.13
2017-10-29T09:48:26.142Z,100458.27
2017-10-29T09:50:52.569Z,100458.23
2017-10-29T09:53:18.833Z,100462.38
2017-10-29T09:55:45.329Z,100472.64
2017-10-29T09:58:11.636Z,100479.81
2017-10-29T10:00:38.366Z,100480.40
2017-10-29T10:03:04.601Z,100491.72
2017-10-29T10:05:30.818Z,100508.43
2017-10-29T10:07:57.174Z,100504.31
2017-10-29T10:10:23.622Z,100507.08
2017-10-29T10:12:49.798Z,100512.07
2017-10-29T10:15:16.533Z,100513.78
2017-10-29T10:17:42.963Z,100524.52
2017-10-29T10:20:09.146Z,100519.05
2017-10-29T10:22:35.469Z,100526.89
2017-10-29T10:25:02.017Z,100531.73
2017-10-29T10:27:28.313Z,100532.17
2017-10-29T10:29:54.923Z,100543.45
2017-10-29T10:32:21.363Z,100535.91
2017-10-29T10:34:47.615Z,100548.40
2017-10-29T10:37:14.024Z,100549.31
2017-10-29T10:39:40.235Z,100560.83
2017-10-29T10:42:06.433Z,100565.23
2017-10-29T10:44:33.235Z,100571.31
2017-10-29T10:46:59.446Z,100575.22
2017-10-29T10:49:25.647Z,100583.45
2017-10-29T10:51:52.559Z,100590.77
2017-10-29T10:54:18.741Z,100587.59
2017-10-29T10:56:44.950Z,100597.54
2017-10-29T10:59:11.194Z,100600.09
2017-10-29T11:01:37.402Z,100608.61
2017-10-29T11:04:03.665Z,100617.20
2017-10-29T11:06:29.855Z,100629.59
2017-10-29T11:08:56.028Z,100635.94
2017-10-29T11:11:22.486Z,100630.80
2017-10-29T11:13:49.029Z,100637.47
2017-10-29T11:16:15.218Z,100638.38
2017-10-29T11:18:41.466Z,100650.19
2017-10-29T11:21:07.733Z,100635.28
2017-10-29T11:23:33.957Z,100652.27
2017-10-29T11:26:00.138Z,100660.53
2017-10-29T11:28:26.986Z,100667.02
2017-10-29T11:30:53.273Z,100673.77
2017-10-29T11:33:19.483Z,100683.31
2017-10-29T11:35:45.817Z,100690.31
2017-10-29T11:38:12.013Z,100707.44
2017-10-29T11:40:38.193Z,100700.44
2017-10-29T11:43:04.545Z,100711.30
2017-10-29T11:45:30.738Z,100713.92
2017-10-29T11:47:56.924Z,100726.57
2017-10-29T11:50:23.248Z,100732.77
2017-10-29T11:52:49.429Z,100738.95
2017-10-29T11:55:15.616Z,100737.64
2017-10-29T11:57:41.872Z,100747.80
2017-10-29T12:00:08.330Z,100758.03
2017-10-29T12:02:34.541Z,100766.03
2017-10-29T12:05:00.788Z,100770.14
2017-10-29T12:07:26.974Z,100780.69
2017-10-29T12:09:53.410Z,100778.07
2017-10-29T12:12:19.705Z,100791.62
2017-10-29T12:14:45.930Z,100792.43
2017-10-29T12:17:12.110Z,100791.09
2017-10-29T12:19:38.521Z,100803.98
2017-10-29T12:22:04.741Z,100807.64
2017-10-29T12:24:30.961Z,100814.48
2017-10-29T12:26:57.314Z,100809.06
2017-10-29T12:29:23.763Z,100818.41
2017-10-29T12:31:49.949Z,100824.03
2017-10-29T12:34:17.057Z,100832.98
2017-10-29T12:36:43.259Z,100856.77
2017-10-29T12:39:09.769Z,100838.09
2017-10-29T12:41:36.081Z,100829.98
2017-10-29T12:44:02.669Z,100834.28
2017-10-29T12:46:28.840Z,100848.09
2017-10-29T12:48:55.289Z,100841.39
2017-10-29T12:51:22.315Z,100841.29
2017-10-29T12:53:48.530Z,100843.37
2017-10-29T12:56:14.730Z,100853.77
2017-10-29T12:58:41.314Z,100862.42
2017-10-29T13:01:07.506Z,100858.83
2017-10-29T13:03:33.687Z,100856.02
2017-10-29T13:05:59.998Z,100855.45
2017-10-29T13:08:26.201Z,100859.28
2017-10-29T13:10:52.389Z,100865.78
2017-10-29T13:13:18.727Z,100861.77
2017-10-29T13:15:44.931Z,100869.07
2017-10-29T13:18:11.136Z,100875.06
2017-10-29T13:20:37.616Z,100885.93
2017-10-29T13:23:03.805Z,100887.98
2017-10-29T13:25:30.238Z,100888.78
2017-10-29T13:27:56.449Z,100894.00
2017-10-29T13:30:22.709Z,100897.43
2017-10-29T13:32:48.907Z,100896.01
2017-10-29T13:35:15.107Z,100907.77
2017-10-29T13:37:41.354Z,100912.14
2017-10-29T13:40:07.789Z,100912.11
2017-10-29T13:42:34.005Z,100911.09
2017-10-29T13:45:00.871Z,100913.53
2017-10-29T13:47:27.062Z,100920.46
2017-10-29T13:49:53.252Z,100919.41
2017-10-29T13:52:19.906Z,100918.05
2017-10-29T13:54:46.120Z,100921.63
2017-10-29T13:57:12.319Z,100921.37
2017-10-29T13:59:38.653Z,100922.00
2017-10-29T14:02:04.841Z,100926.92
2017-10-29T14:04:31.050Z,100928.45
2017-10-29T14:06:57.320Z,100931.28
2017-10-29T14:09:23.528Z,100937.52
2017-10-29T14:11:49.734Z,100947.42
2017-10-29T14:14:16.518Z,100942.91
2017-10-29T14:16:42.948Z,100953.20
2017-10-29T14:19:09.134Z,100951.34
2017-10-29T14:21:35.976Z,100958.58
2017-10-29T14:24:02.205Z,100949.59
2017-10-29T14:26:28.657Z,100954.23
2017-10-29T14:28:55.009Z,100956.79
2017-10-29T14:31:21.442Z,100954.89
2017-10-29T14:33:47.644Z,100968.80
2017-10-29T14:36:14.270Z,100966.61
2017-10-29T14:38:40.483Z,100979.39
2017-10-29T14:41:12.594Z,100977.75
2017-10-29T14:43:38.863Z,100980.05
2017-10-29T14:46:05.220Z,100984.17
2017-10-29T14:48:31.421Z,100995.73
2017-10-29T14:50:58.265Z,100997.27
2017-10-29T14:53:24.457Z,100995.84
2017-10-29T14:55:50.646Z,101000.30
2017-10-29T14:58:16.973Z,101002.98
2017-10-29T15:00:43.166Z,101008.69
2017-10-29T15:03:09.361Z,101010.50
2017-10-29T15:05:35.708Z,101009.16
2017-10-29T15:08:01.913Z,101011.89
2017-10-29T15:10:28.113Z,101019.37
2017-10-29T15:12:54.343Z,101022.97
2017-10-29T15:15:20.532Z,101020.07
2017-10-29T15:17:47.149Z,101020.64
2017-10-29T15:20:13.594Z,101029.25
2017-10-29T15:22:39.778Z,101023.28
2017-10-29T15:25:06.345Z,101013.28
2017-10-29T15:27:32.769Z,101019.97
2017-10-29T15:29:58.961Z,101027.53
2017-10-29T15:32:25.779Z,101032.06
2017-10-29T15:34:51.983Z,101034.81
2017-10-29T15:37:18.426Z,101041.44
2017-10-29T15:39:45.308Z,101039.37
2017-10-29T15:42:11.793Z,101031.58
2017-10-29T15:44:37.977Z,101037.31
2017-10-29T15:47:04.260Z,101039.16
2017-10-29T15:49:30.462Z,101044.06
2017-10-29T15:51:56.793Z,101045.05
2017-10-29T15:54:22.993Z,101049.91
2017-10-29T15:56:49.184Z,101065.27
2017-10-29T15:59:15.433Z,101063.58
2017-10-29T16:01:41.626Z,101064.92
2017-10-29T16:04:07.808Z,101072.38
2017-10-29T16:06:34.070Z,101073.69
2017-10-29T16:09:00.347Z,101081.62
2017-10-29T16:11:26.549Z,101091.73
2017-10-29T16:13:52.894Z,101096.59
2017-10-29T16:16:19.080Z,101103.61
2017-10-29T16:18:45.292Z,101107.95
2017-10-29T16:21:11.629Z,101114.57
2017-10-29T16:23:37.809Z,101110.25
2017-10-29T16:26:04.015Z,101114.67
2017-10-29T16:28:30.364Z,101121.69
2017-10-29T16:30:56.565Z,101125.23
2017-10-29T16:33:22.845Z,101136.17
2017-10-29T16:35:49.191Z,101136.16
2017-10-29T16:38:15.403Z,101136.66
2017-10-29T16:40:41.622Z,101138.86
2017-10-29T16:43:07.874Z,101150.23
2017-10-29T16:45:34.145Z,101157.25
2017-10-29T16:48:00.341Z,101159.02
2017-10-29T16:50:26.686Z,101159.05
2017-10-29T16:55:24.696Z,101177.47
2017-10-29T16:57:50.957Z,101176.59
2017-10-29T17:00:17.386Z,101190.19
2017-10-29T17:02:43.606Z,101186.25
2017-10-29T17:05:10.049Z,101192.86
2017-10-29T17:07:36.251Z,101196.45
2017-10-29T17:10:02.563Z,101201.23
2017-10-29T17:12:28.959Z,101210.02
2017-10-29T17:14:55.153Z,101219.22
2017-10-29T17:17:21.361Z,101224.02
2017-10-29T17:19:47.711Z,101227.98
2017-10-29T17:22:13.893Z,101229.28
2017-10-29T17:24:40.321Z,101230.55
2017-10-29T17:27:06.636Z,101234.47
2017-10-29T17:29:32.845Z,101231.47
2017-10-29T17:31:59.074Z,101235.41
2017-10-29T17:34:25.628Z,101247.63
2017-10-29T17:36:52.069Z,101261.23
2017-10-29T17:39:18.481Z,101259.08
2017-10-29T17:41:44.720Z,101259.95
2017-10-29T17:44:10.918Z,101262.12
2017-10-29T17:46:37.139Z,101269.14
2017-10-29T17:49:03.720Z,101272.60
2017-10-29T17:51:29.898Z,101282.22
2017-10-29T17:53:56.317Z,101278.31
2017-10-29T17:56:22.552Z,101282.23
2017-10-29T17:58:48.733Z,101282.19
2017-10-29T18:01:14.937Z,101286.98
2017-10-29T18:03:41.270Z,101293.12
2017-10-29T18:06:07.506Z,101289.62
2017-10-29T18:08:33.700Z,101295.30
2017-10-29T18:11:00.125Z,101298.83
2017-10-29T18:13:26.335Z,101298.84
2017-10-29T18:15:52.531Z,101301.53
2017-10-29T18:18:18.805Z,101296.26
2017-10-29T18:20:45.043Z,101301.52
2017-10-29T18:23:11.239Z,101302.88
2017-10-29T18:25:37.798Z,101295.84
2017-10-29T18:28:04.231Z,101302.40
2017-10-29T18:30:30.483Z,101302.83
2017-10-29T18:32:57.314Z,101302.46
2017-10-29T18:35:23.610Z,101308.16
2017-10-29T18:37:49.821Z,101306.84
2017-10-29T18:40:16.595Z,101308.61
2017-10-29T18:42:42.768Z,101319.48
2017-10-29T18:45:08.955Z,101315.12
2017-10-29T18:47:35.342Z,101321.73
2017-10-29T18:50:01.529Z,101322.16
2017-10-29T18:52:27.959Z,101324.78
2017-10-29T18:54:54.294Z,101317.33
2017-10-29T18:57:20.477Z,101316.47
2017-10-29T18:59:46.644Z,101318.20
2017-10-29T19:02:12.893Z,101321.26
2017-10-29T19:04:39.329Z,101324.75
2017-10-29T19:07:05.518Z,101325.19
2017-10-29T19:09:31.732Z,101323.53
2017-10-29T19:11:58.168Z,101331.82
2017-10-29T19:14:24.355Z,101340.95
2017-10-29T19:16:51.315Z,101339.64
2017-10-29T19:19:17.525Z,101337.48
2017-10-29T19:21:43.713Z,101333.50
2017-10-29T19:24:10.423Z,101336.59
2017-10-29T19:26:36.631Z,101337.45
2017-10-29T19:29:02.834Z,101340.97
2017-10-29T19:31:29.162Z,101348.83
2017-10-29T19:33:55.572Z,101350.59
2017-10-29T19:36:21.946Z,101344.47
2017-10-29T19:38:48.414Z,101349.67
2017-10-29T19:41:14.613Z,101348.36
2017-10-29T19:43:40.790Z,101354.06
2017-10-29T19:46:07.042Z,101354.48
2017-10-29T19:48:33.208Z,101362.81
2017-10-29T19:50:59.394Z,101362.80
2017-10-29T19:53:25.942Z,101365.86
2017-10-29T19:55:52.138Z,101357.55
2017-10-29T19:58:18.338Z,101364.16
2017-10-29T20:00:44.552Z,101370.25
2017-10-29T20:03:10.771Z,101366.27
2017-10-29T20:05:37.692Z,101366.27
2017-10-29T20:08:04.173Z,101364.11
2017-10-29T20:10:30.605Z,101371.52
2017-10-29T20:12:56.941Z,101374.58
2017-10-29T20:15:23.422Z,101375.98
2017-10-29T20:17:49.619Z,101375.55
2017-10-29T20:20:15.887Z,101382.95
2017-10-29T20:22:42.077Z,101381.64
2017-10-29T20:25:08.283Z,101381.66
2017-10-29T20:27:34.620Z,101393.00
2017-10-29T20:30:00.813Z,101393.91
2017-10-29T20:32:27.002Z,101399.58
2017-10-29T20:34:53.569Z,101398.70
2017-10-29T20:37:19.948Z,101400.87
2017-10-29T20:39:46.166Z,101413.55
2017-10-29T20:42:12.754Z,101416.14
2017-10-29T20:44:38.955Z,101417.47
2017-10-29T20:47:05.173Z,101422.70
2017-10-29T20:49:31.427Z,101411.78
2017-10-29T20:51:57.624Z,101420.12
2017-10-29T20:54:23.809Z,101418.37
2017-10-29T20:56:50.382Z,101427.95
2017-10-29T20:59:16.577Z,101437.56
2017-10-29T21:01:42.999Z,101433.67
2017-10-29T21:04:09.273Z,101434.14
2017-10-29T21:06:35.465Z,101431.50
2017-10-29T21:09:01.659Z,101429.31
2017-10-29T21:11:28.158Z,101433.71
2017-10-29T21:13:54.349Z,101431.13
2017-10-29T21:16:20.569Z,101442.86
2017-10-29T21:18:46.832Z,101436.73
2017-10-29T21:21:13.018Z,101451.17
2017-10-29T21:23:39.244Z,101449.88
2017-10-29T21:26:05.506Z,101445.48
2017-10-29T21:28:31.682Z,101446.36
2017-10-29T21:30:58.108Z,101448.98
2017-10-29T21:33:24.374Z,101449.86
2017-10-29T21:35:50.554Z,101456.87
2017-10-29T21:38:16.855Z,101455.96
2017-10-29T21:40:43.064Z,101461.20
2017-10-29T21:43:09.277Z,101459.91
2017-10-29T21:45:35.463Z,101464.27
2017-10-29T21:48:01.908Z,101462.11
2017-10-29T21:50:28.230Z,101466.02
2017-10-29T21:52:54.418Z,101476.97
2017-10-29T21:55:20.843Z,101473.45
2017-10-29T21:57:47.198Z,101484.84
2017-10-29T22:00:13.405Z,101485.30
2017-10-29T22:02:39.610Z,101476.16
2017-10-29T22:05:06.167Z,101478.77
2017-10-29T22:07:32.576Z,101479.17
2017-10-29T22:09:58.740Z,101484.83
2017-10-29T22:12:24.967Z,101488.31
2017-10-29T22:14:51.294Z,101484.36
2017-10-29T22:17:17.493Z,101490.05
2017-10-29T22:19:43.926Z,101495.30
2017-10-29T22:22:10.184Z,101504.05
2017-10-29T22:24:36.355Z,101492.30
2017-10-29T22:27:02.780Z,101495.77
2017-10-29T22:29:29.032Z,101498.80
2017-10-29T22:31:55.216Z,101495.31
2017-10-29T22:34:21.641Z,101497.93
2017-10-29T22:36:48.281Z,101503.19
2017-10-29T22:39:14.878Z,101505.36
2017-10-29T22:41:41.110Z,101502.29
2017-10-29T22:44:07.436Z,101505.77
2017-10-29T22:46:33.884Z,101513.64
2017-10-29T22:49:00.113Z,101517.55
2017-10-29T22:51:26.439Z,101520.16
2017-10-29T22:53:52.876Z,101527.58
2017-10-29T22:56:19.090Z,101514.93
2017-10-29T22:58:45.625Z,101513.16
2017-10-29T23:01:11.813Z,101516.22
2017-10-29T23:03:38.242Z,101522.78
2017-10-29T23:06:17.497Z,101530.22
2017-10-29T23:08:43.763Z,101531.50
2017-10-29T23:11:09.949Z,101542.00
2017-10-29T23:13:36.265Z,101531.05
2017-10-29T23:16:02.462Z,101531.98
2017-10-29T23:18:28.961Z,101540.26
2017-10-29T23:20:55.263Z,101555.55
2017-10-29T23:23:21.486Z,101569.05
2017-10-29T23:25:47.682Z,101565.98
2017-10-29T23:28:13.935Z,101564.67
2017-10-29T23:30:40.129Z,101555.97
2017-10-29T23:33:06.313Z,101558.61
2017-10-29T23:35:32.971Z,101557.72
2017-10-29T23:37:59.172Z,101566.02
2017-10-29T23:40:25.444Z,101573.01
2017-10-29T23:42:51.692Z,101579.56
2017-10-29T23:45:18.125Z,101584.36
2017-10-29T23:47:44.457Z,101591.35
2017-10-29T23:50:10.796Z,101591.80
2017-10-29T23:52:36.975Z,101600.10
2017-10-29T23:55:03.515Z,101596.63
2017-10-29T23:57:30.746Z,101589.22
2017-10-29T23:59:56.957Z,101577.84
